sensor_id;sensor_type;location;lat;lon;timestamp;temperature;humidity
3994;DHT22;2011;48.238;13.948;2023-06-24T00:02:14;16.20;99.90
3994;DHT22;2011;48.238;13.948;2023-06-24T00:04:43;16.10;99.90
3994;DHT22;2011;48.238;13.948;2023-06-24T00:07:10;16.10;99.90
3994;DHT22;2011;48.238;13.948;2023-06-24T00:09:37;16.00;99.90
3994;DHT22;2011;48.238;13.948;2023-06-24T00:12:06;15.90;99.90
3994;DHT22;2011;48.238;13.948;2023-06-24T00:14:33;15.90;99.90
3994;DHT22;2011;48.238;13.948;2023-06-24T00:17:02;15.90;99.90
3994;DHT22;2011;48.238;13.948;2023-06-24T00:19:30;15.80;99.90
3994;DHT22;2011;48.238;13.948;2023-06-24T00:21:59;15.80;99.90
3994;DHT22;2011;48.238;13.948;2023-06-24T00:24:29;15.80;99.90
3994;DHT22;2011;48.238;13.948;2023-06-24T00:26:56;15.80;99.90
3994;DHT22;2011;48.238;13.948;2023-06-24T00:29:24;15.80;99.90
3994;DHT22;2011;48.238;13.948;2023-06-24T00:31:54;15.70;99.90
3994;DHT22;2011;48.238;13.948;2023-06-24T00:34:25;15.70;99.90
3994;DHT22;2011;48.238;13.948;2023-06-24T00:36:52;15.70;99.90
3994;DHT22;2011;48.238;13.948;2023-06-24T00:39:20;15.60;99.90
3994;DHT22;2011;48.238;13.948;2023-06-24T00:44:56;15.70;99.90
3994;DHT22;2011;48.238;13.948;2023-06-24T00:47:23;15.60;99.90
3994;DHT22;2011;48.238;13.948;2023-06-24T00:49:51;15.60;99.90
3994;DHT22;2011;48.238;13.948;2023-06-24T00:52:18;15.60;99.90
3994;DHT22;2011;48.238;13.948;2023-06-24T00:54:47;15.50;99.90
3994;DHT22;2011;48.238;13.948;2023-06-24T00:57:15;15.50;99.90
3994;DHT22;2011;48.238;13.948;2023-06-24T00:59:43;15.50;99.90
3994;DHT22;2011;48.238;13.948;2023-06-24T01:02:11;15.50;99.90
3994;DHT22;2011;48.238;13.948;2023-06-24T01:04:40;15.50;99.90
3994;DHT22;2011;48.238;13.948;2023-06-24T01:07:09;15.50;99.90
3994;DHT22;2011;48.238;13.948;2023-06-24T01:09:37;15.50;99.90
3994;DHT22;2011;48.238;13.948;2023-06-24T01:12:07;15.40;99.90
3994;DHT22;2011;48.238;13.948;2023-06-24T01:14:35;15.40;99.90
3994;DHT22;2011;48.238;13.948;2023-06-24T01:17:08;15.40;99.90
3994;DHT22;2011;48.238;13.948;2023-06-24T01:19:57;15.40;99.90
3994;DHT22;2011;48.238;13.948;2023-06-24T01:23:01;15.40;99.90
3994;DHT22;2011;48.238;13.948;2023-06-24T01:28:47;15.40;99.90
3994;DHT22;2011;48.238;13.948;2023-06-24T01:31:37;15.30;99.90
3994;DHT22;2011;48.238;13.948;2023-06-24T01:34:12;15.40;99.90
3994;DHT22;2011;48.238;13.948;2023-06-24T01:36:55;15.40;99.90
3994;DHT22;2011;48.238;13.948;2023-06-24T01:39:25;15.40;99.90
3994;DHT22;2011;48.238;13.948;2023-06-24T01:41:59;15.40;99.90
3994;DHT22;2011;48.238;13.948;2023-06-24T01:44:29;15.40;99.90
3994;DHT22;2011;48.238;13.948;2023-06-24T01:46:59;15.40;99.90
3994;DHT22;2011;48.238;13.948;2023-06-24T01:49:28;15.30;99.90
3994;DHT22;2011;48.238;13.948;2023-06-24T01:51:59;15.40;99.90
3994;DHT22;2011;48.238;13.948;2023-06-24T01:54:29;15.40;99.90
3994;DHT22;2011;48.238;13.948;2023-06-24T01:56:57;15.40;99.90
3994;DHT22;2011;48.238;13.948;2023-06-24T01:59:28;15.30;99.90
3994;DHT22;2011;48.238;13.948;2023-06-24T02:01:59;15.30;99.90
3994;DHT22;2011;48.238;13.948;2023-06-24T02:04:28;15.30;99.90
3994;DHT22;2011;48.238;13.948;2023-06-24T02:06:58;15.30;99.90
3994;DHT22;2011;48.238;13.948;2023-06-24T02:09:28;15.30;99.90
3994;DHT22;2011;48.238;13.948;2023-06-24T02:11:57;15.30;99.90
3994;DHT22;2011;48.238;13.948;2023-06-24T02:14:26;15.20;99.90
3994;DHT22;2011;48.238;13.948;2023-06-24T02:16:56;15.20;99.90
3994;DHT22;2011;48.238;13.948;2023-06-24T02:19:29;15.10;99.90
3994;DHT22;2011;48.238;13.948;2023-06-24T02:21:56;15.10;99.90
3994;DHT22;2011;48.238;13.948;2023-06-24T02:24:25;15.20;99.90
3994;DHT22;2011;48.238;13.948;2023-06-24T02:26:53;15.20;99.90
3994;DHT22;2011;48.238;13.948;2023-06-24T02:29:22;15.20;99.90
3994;DHT22;2011;48.238;13.948;2023-06-24T02:31:50;15.10;99.90
3994;DHT22;2011;48.238;13.948;2023-06-24T02:34:18;15.10;99.90
3994;DHT22;2011;48.238;13.948;2023-06-24T02:36:50;15.10;99.90
3994;DHT22;2011;48.238;13.948;2023-06-24T02:39:19;15.10;99.90
3994;DHT22;2011;48.238;13.948;2023-06-24T02:41:49;15.10;99.90
3994;DHT22;2011;48.238;13.948;2023-06-24T02:44:16;15.10;99.90
3994;DHT22;2011;48.238;13.948;2023-06-24T02:46:44;15.00;99.90
3994;DHT22;2011;48.238;13.948;2023-06-24T02:49:15;15.00;99.90
3994;DHT22;2011;48.238;13.948;2023-06-24T02:51:44;15.00;99.90
3994;DHT22;2011;48.238;13.948;2023-06-24T02:54:13;15.00;99.90
3994;DHT22;2011;48.238;13.948;2023-06-24T02:56:42;14.90;99.90
3994;DHT22;2011;48.238;13.948;2023-06-24T02:59:11;14.90;99.90
3994;DHT22;2011;48.238;13.948;2023-06-24T03:01:42;14.90;99.90
3994;DHT22;2011;48.238;13.948;2023-06-24T03:04:11;14.90;99.90
3994;DHT22;2011;48.238;13.948;2023-06-24T03:06:41;14.90;99.90
3994;DHT22;2011;48.238;13.948;2023-06-24T03:09:09;15.00;99.90
3994;DHT22;2011;48.238;13.948;2023-06-24T03:11:44;15.00;99.90
3994;DHT22;2011;48.238;13.948;2023-06-24T03:14:12;15.00;99.90
3994;DHT22;2011;48.238;13.948;2023-06-24T03:16:39;15.00;99.90
3994;DHT22;2011;48.238;13.948;2023-06-24T03:19:07;14.90;99.90
3994;DHT22;2011;48.238;13.948;2023-06-24T03:21:34;15.00;99.90
3994;DHT22;2011;48.238;13.948;2023-06-24T03:24:02;15.00;99.90
3994;DHT22;2011;48.238;13.948;2023-06-24T03:26:32;15.00;99.90
3994;DHT22;2011;48.238;13.948;2023-06-24T03:29:02;15.00;99.90
3994;DHT22;2011;48.238;13.948;2023-06-24T03:31:29;15.00;99.90
3994;DHT22;2011;48.238;13.948;2023-06-24T03:33:56;15.00;99.90
3994;DHT22;2011;48.238;13.948;2023-06-24T03:36:24;15.00;99.90
3994;DHT22;2011;48.238;13.948;2023-06-24T03:38:51;15.00;99.90
3994;DHT22;2011;48.238;13.948;2023-06-24T03:41:18;15.00;99.90
3994;DHT22;2011;48.238;13.948;2023-06-24T03:43:46;15.10;99.90
3994;DHT22;2011;48.238;13.948;2023-06-24T03:46:15;15.10;99.90
3994;DHT22;2011;48.238;13.948;2023-06-24T03:48:43;15.10;99.90
3994;DHT22;2011;48.238;13.948;2023-06-24T03:51:10;15.10;99.90
3994;DHT22;2011;48.238;13.948;2023-06-24T03:53:38;15.00;99.90
3994;DHT22;2011;48.238;13.948;2023-06-24T03:56:05;15.10;99.90
3994;DHT22;2011;48.238;13.948;2023-06-24T03:58:33;15.00;99.90
3994;DHT22;2011;48.238;13.948;2023-06-24T04:01:01;15.00;99.90
3994;DHT22;2011;48.238;13.948;2023-06-24T04:03:30;15.00;99.90
3994;DHT22;2011;48.238;13.948;2023-06-24T04:05:58;15.00;99.90
3994;DHT22;2011;48.238;13.948;2023-06-24T04:08:27;14.90;99.90
3994;DHT22;2011;48.238;13.948;2023-06-24T04:10:55;15.00;99.90
3994;DHT22;2011;48.238;13.948;2023-06-24T04:13:22;14.90;99.90
3994;DHT22;2011;48.238;13.948;2023-06-24T04:15:50;14.90;99.90
3994;DHT22;2011;48.238;13.948;2023-06-24T04:18:17;14.90;99.90
3994;DHT22;2011;48.238;13.948;2023-06-24T04:20:46;14.90;99.90
3994;DHT22;2011;48.238;13.948;2023-06-24T04:23:14;14.90;99.90
3994;DHT22;2011;48.238;13.948;2023-06-24T04:25:41;14.90;99.90
3994;DHT22;2011;48.238;13.948;2023-06-24T04:28:09;14.80;99.90
3994;DHT22;2011;48.238;13.948;2023-06-24T04:30:36;14.80;99.90
3994;DHT22;2011;48.238;13.948;2023-06-24T04:33:04;14.80;99.90
3994;DHT22;2011;48.238;13.948;2023-06-24T04:35:31;14.80;99.90
3994;DHT22;2011;48.238;13.948;2023-06-24T04:38:00;14.80;99.90
3994;DHT22;2011;48.238;13.948;2023-06-24T04:40:27;14.80;99.90
3994;DHT22;2011;48.238;13.948;2023-06-24T04:42:56;14.80;99.90
3994;DHT22;2011;48.238;13.948;2023-06-24T04:45:23;14.80;99.90
3994;DHT22;2011;48.238;13.948;2023-06-24T04:50:18;14.80;99.90
3994;DHT22;2011;48.238;13.948;2023-06-24T04:52:52;14.80;99.90
3994;DHT22;2011;48.238;13.948;2023-06-24T04:55:22;14.80;99.90
3994;DHT22;2011;48.238;13.948;2023-06-24T04:57:49;14.80;99.90
3994;DHT22;2011;48.238;13.948;2023-06-24T05:00:17;14.80;99.90
3994;DHT22;2011;48.238;13.948;2023-06-24T05:02:48;14.70;99.90
3994;DHT22;2011;48.238;13.948;2023-06-24T05:05:16;14.70;99.90
3994;DHT22;2011;48.238;13.948;2023-06-24T05:07:43;14.70;99.90
3994;DHT22;2011;48.238;13.948;2023-06-24T05:10:11;14.70;99.90
3994;DHT22;2011;48.238;13.948;2023-06-24T05:12:39;14.70;99.90
3994;DHT22;2011;48.238;13.948;2023-06-24T05:15:07;14.70;99.90
3994;DHT22;2011;48.238;13.948;2023-06-24T05:17:35;14.80;99.90
3994;DHT22;2011;48.238;13.948;2023-06-24T05:20:03;14.80;99.90
3994;DHT22;2011;48.238;13.948;2023-06-24T05:22:30;14.80;99.90
3994;DHT22;2011;48.238;13.948;2023-06-24T05:24:58;14.80;99.90
3994;DHT22;2011;48.238;13.948;2023-06-24T05:27:25;14.80;99.90
3994;DHT22;2011;48.238;13.948;2023-06-24T05:29:54;14.80;99.90
3994;DHT22;2011;48.238;13.948;2023-06-24T05:32:22;14.80;99.90
3994;DHT22;2011;48.238;13.948;2023-06-24T05:34:49;14.80;99.90
3994;DHT22;2011;48.238;13.948;2023-06-24T05:37:17;14.80;99.90
3994;DHT22;2011;48.238;13.948;2023-06-24T05:39:44;14.70;99.90
3994;DHT22;2011;48.238;13.948;2023-06-24T05:42:12;14.80;99.90
3994;DHT22;2011;48.238;13.948;2023-06-24T05:44:39;14.80;99.90
3994;DHT22;2011;48.238;13.948;2023-06-24T05:47:08;14.80;99.90
3994;DHT22;2011;48.238;13.948;2023-06-24T05:49:35;14.80;99.90
3994;DHT22;2011;48.238;13.948;2023-06-24T05:52:04;14.80;99.90
3994;DHT22;2011;48.238;13.948;2023-06-24T05:54:31;14.80;99.90
3994;DHT22;2011;48.238;13.948;2023-06-24T05:56:59;14.80;99.90
3994;DHT22;2011;48.238;13.948;2023-06-24T05:59:26;14.80;99.90
3994;DHT22;2011;48.238;13.948;2023-06-24T06:01:54;14.80;99.90
3994;DHT22;2011;48.238;13.948;2023-06-24T06:04:23;14.80;99.90
3994;DHT22;2011;48.238;13.948;2023-06-24T06:06:50;14.80;99.90
3994;DHT22;2011;48.238;13.948;2023-06-24T06:09:18;14.80;99.90
3994;DHT22;2011;48.238;13.948;2023-06-24T06:11:45;14.80;99.90
3994;DHT22;2011;48.238;13.948;2023-06-24T06:14:13;14.80;99.90
3994;DHT22;2011;48.238;13.948;2023-06-24T06:16:41;14.80;99.90
3994;DHT22;2011;48.238;13.948;2023-06-24T06:19:08;14.80;99.90
3994;DHT22;2011;48.238;13.948;2023-06-24T06:21:38;14.80;99.90
3994;DHT22;2011;48.238;13.948;2023-06-24T06:24:06;14.80;99.90
3994;DHT22;2011;48.238;13.948;2023-06-24T06:26:33;14.90;99.90
3994;DHT22;2011;48.238;13.948;2023-06-24T06:29:01;14.90;99.90
3994;DHT22;2011;48.238;13.948;2023-06-24T06:31:28;14.90;99.90
3994;DHT22;2011;48.238;13.948;2023-06-24T06:33:59;14.90;99.90
3994;DHT22;2011;48.238;13.948;2023-06-24T06:36:36;15.00;99.90
3994;DHT22;2011;48.238;13.948;2023-06-24T06:39:04;15.00;99.90
3994;DHT22;2011;48.238;13.948;2023-06-24T06:41:32;15.00;99.90
3994;DHT22;2011;48.238;13.948;2023-06-24T06:43:59;15.00;99.90
3994;DHT22;2011;48.238;13.948;2023-06-24T06:46:27;15.10;99.90
3994;DHT22;2011;48.238;13.948;2023-06-24T06:48:55;15.10;99.90
3994;DHT22;2011;48.238;13.948;2023-06-24T06:51:23;15.20;99.90
3994;DHT22;2011;48.238;13.948;2023-06-24T06:53:53;15.20;99.90
3994;DHT22;2011;48.238;13.948;2023-06-24T06:56:23;15.20;99.90
3994;DHT22;2011;48.238;13.948;2023-06-24T06:58:51;15.20;99.90
3994;DHT22;2011;48.238;13.948;2023-06-24T07:01:19;15.20;99.90
3994;DHT22;2011;48.238;13.948;2023-06-24T07:03:49;15.20;99.90
3994;DHT22;2011;48.238;13.948;2023-06-24T07:06:18;15.30;99.90
3994;DHT22;2011;48.238;13.948;2023-06-24T07:08:45;15.20;99.90
3994;DHT22;2011;48.238;13.948;2023-06-24T07:11:14;15.20;99.90
3994;DHT22;2011;48.238;13.948;2023-06-24T07:13:42;15.20;99.90
3994;DHT22;2011;48.238;13.948;2023-06-24T07:16:10;15.20;99.90
3994;DHT22;2011;48.238;13.948;2023-06-24T07:18:38;15.30;99.90
3994;DHT22;2011;48.238;13.948;2023-06-24T07:21:05;15.30;99.90
3994;DHT22;2011;48.238;13.948;2023-06-24T07:23:33;15.30;99.90
3994;DHT22;2011;48.238;13.948;2023-06-24T07:26:00;15.40;99.90
3994;DHT22;2011;48.238;13.948;2023-06-24T07:28:29;15.40;99.90
3994;DHT22;2011;48.238;13.948;2023-06-24T07:30:57;15.50;99.90
3994;DHT22;2011;48.238;13.948;2023-06-24T07:33:25;15.50;99.90
3994;DHT22;2011;48.238;13.948;2023-06-24T07:35:52;15.50;99.90
3994;DHT22;2011;48.238;13.948;2023-06-24T07:38:20;15.60;99.90
3994;DHT22;2011;48.238;13.948;2023-06-24T07:40:51;15.60;99.90
3994;DHT22;2011;48.238;13.948;2023-06-24T07:43:19;15.60;99.90
3994;DHT22;2011;48.238;13.948;2023-06-24T07:45:48;15.70;99.90
3994;DHT22;2011;48.238;13.948;2023-06-24T07:48:16;15.70;99.90
3994;DHT22;2011;48.238;13.948;2023-06-24T07:50:44;15.70;99.90
3994;DHT22;2011;48.238;13.948;2023-06-24T07:53:11;15.80;99.90
3994;DHT22;2011;48.238;13.948;2023-06-24T07:55:39;15.80;99.90
3994;DHT22;2011;48.238;13.948;2023-06-24T07:58:07;15.80;99.90
3994;DHT22;2011;48.238;13.948;2023-06-24T08:00:35;15.90;99.90
3994;DHT22;2011;48.238;13.948;2023-06-24T08:03:04;15.90;99.90
3994;DHT22;2011;48.238;13.948;2023-06-24T08:05:31;15.90;99.90
3994;DHT22;2011;48.238;13.948;2023-06-24T08:07:59;16.00;99.90
3994;DHT22;2011;48.238;13.948;2023-06-24T08:10:28;16.00;99.90
3994;DHT22;2011;48.238;13.948;2023-06-24T08:12:57;16.00;99.90
3994;DHT22;2011;48.238;13.948;2023-06-24T08:15:25;16.10;99.90
3994;DHT22;2011;48.238;13.948;2023-06-24T08:17:53;16.10;99.90
3994;DHT22;2011;48.238;13.948;2023-06-24T08:20:27;16.20;99.90
3994;DHT22;2011;48.238;13.948;2023-06-24T08:22:54;16.30;99.90
3994;DHT22;2011;48.238;13.948;2023-06-24T08:25:22;16.30;99.90
3994;DHT22;2011;48.238;13.948;2023-06-24T08:27:50;16.40;99.90
3994;DHT22;2011;48.238;13.948;2023-06-24T08:30:17;16.40;99.90
3994;DHT22;2011;48.238;13.948;2023-06-24T08:32:45;16.40;99.90
3994;DHT22;2011;48.238;13.948;2023-06-24T08:35:12;16.50;99.90
3994;DHT22;2011;48.238;13.948;2023-06-24T08:37:42;16.50;99.90
3994;DHT22;2011;48.238;13.948;2023-06-24T08:40:10;16.60;99.90
3994;DHT22;2011;48.238;13.948;2023-06-24T08:42:37;16.60;99.90
3994;DHT22;2011;48.238;13.948;2023-06-24T08:45:06;16.60;99.90
3994;DHT22;2011;48.238;13.948;2023-06-24T08:47:34;16.70;99.90
3994;DHT22;2011;48.238;13.948;2023-06-24T08:50:04;16.70;99.90
3994;DHT22;2011;48.238;13.948;2023-06-24T08:52:35;16.70;99.90
3994;DHT22;2011;48.238;13.948;2023-06-24T08:55:06;16.70;99.90
3994;DHT22;2011;48.238;13.948;2023-06-24T08:57:36;16.70;99.90
3994;DHT22;2011;48.238;13.948;2023-06-24T09:00:06;16.80;99.90
3994;DHT22;2011;48.238;13.948;2023-06-24T09:02:36;16.80;99.90
3994;DHT22;2011;48.238;13.948;2023-06-24T09:05:04;16.80;99.90
3994;DHT22;2011;48.238;13.948;2023-06-24T09:07:32;16.80;99.90
3994;DHT22;2011;48.238;13.948;2023-06-24T09:10:00;16.90;99.90
3994;DHT22;2011;48.238;13.948;2023-06-24T09:12:32;16.90;99.90
3994;DHT22;2011;48.238;13.948;2023-06-24T09:14:59;16.90;99.90
3994;DHT22;2011;48.238;13.948;2023-06-24T09:17:27;17.00;99.90
3994;DHT22;2011;48.238;13.948;2023-06-24T09:20:03;17.00;99.90
3994;DHT22;2011;48.238;13.948;2023-06-24T09:22:31;17.00;99.90
3994;DHT22;2011;48.238;13.948;2023-06-24T09:25:01;17.10;99.90
3994;DHT22;2011;48.238;13.948;2023-06-24T09:27:32;17.20;99.90
3994;DHT22;2011;48.238;13.948;2023-06-24T09:30:00;17.30;99.90
3994;DHT22;2011;48.238;13.948;2023-06-24T09:32:29;17.40;99.90
3994;DHT22;2011;48.238;13.948;2023-06-24T09:34:57;17.50;99.90
3994;DHT22;2011;48.238;13.948;2023-06-24T09:37:25;17.50;99.90
3994;DHT22;2011;48.238;13.948;2023-06-24T09:39:56;17.70;99.90
3994;DHT22;2011;48.238;13.948;2023-06-24T09:42:25;17.70;99.90
3994;DHT22;2011;48.238;13.948;2023-06-24T09:44:55;17.90;99.90
3994;DHT22;2011;48.238;13.948;2023-06-24T09:47:22;18.00;99.90
3994;DHT22;2011;48.238;13.948;2023-06-24T09:49:53;18.20;99.90
3994;DHT22;2011;48.238;13.948;2023-06-24T09:52:22;18.40;99.90
3994;DHT22;2011;48.238;13.948;2023-06-24T09:54:51;18.50;99.90
3994;DHT22;2011;48.238;13.948;2023-06-24T09:57:22;18.60;99.90
3994;DHT22;2011;48.238;13.948;2023-06-24T09:59:54;18.80;99.90
3994;DHT22;2011;48.238;13.948;2023-06-24T10:02:22;18.90;99.90
3994;DHT22;2011;48.238;13.948;2023-06-24T10:04:52;19.00;99.90
3994;DHT22;2011;48.238;13.948;2023-06-24T10:07:20;19.20;99.90
3994;DHT22;2011;48.238;13.948;2023-06-24T10:09:48;19.40;99.90
3994;DHT22;2011;48.238;13.948;2023-06-24T10:12:16;19.60;99.90
3994;DHT22;2011;48.238;13.948;2023-06-24T10:14:43;19.70;99.90
3994;DHT22;2011;48.238;13.948;2023-06-24T10:17:12;19.60;99.90
3994;DHT22;2011;48.238;13.948;2023-06-24T10:19:41;19.70;99.90
3994;DHT22;2011;48.238;13.948;2023-06-24T10:22:10;19.60;99.90
3994;DHT22;2011;48.238;13.948;2023-06-24T10:24:38;19.70;99.90
3994;DHT22;2011;48.238;13.948;2023-06-24T10:27:16;19.80;99.90
3994;DHT22;2011;48.238;13.948;2023-06-24T10:29:48;19.90;99.90
3994;DHT22;2011;48.238;13.948;2023-06-24T10:32:19;19.80;99.90
3994;DHT22;2011;48.238;13.948;2023-06-24T10:34:47;19.70;99.90
3994;DHT22;2011;48.238;13.948;2023-06-24T10:37:19;19.60;99.90
3994;DHT22;2011;48.238;13.948;2023-06-24T10:39:48;19.60;99.90
3994;DHT22;2011;48.238;13.948;2023-06-24T10:42:26;19.50;99.90
3994;DHT22;2011;48.238;13.948;2023-06-24T10:44:55;19.50;99.90
3994;DHT22;2011;48.238;13.948;2023-06-24T10:47:25;19.60;99.90
3994;DHT22;2011;48.238;13.948;2023-06-24T10:49:53;19.60;99.90
3994;DHT22;2011;48.238;13.948;2023-06-24T10:52:21;19.70;99.90
3994;DHT22;2011;48.238;13.948;2023-06-24T10:54:50;19.70;99.90
3994;DHT22;2011;48.238;13.948;2023-06-24T10:57:22;19.80;99.90
3994;DHT22;2011;48.238;13.948;2023-06-24T10:59:50;19.80;99.90
3994;DHT22;2011;48.238;13.948;2023-06-24T11:02:19;19.80;99.90
3994;DHT22;2011;48.238;13.948;2023-06-24T11:04:49;19.80;99.90
3994;DHT22;2011;48.238;13.948;2023-06-24T11:07:18;19.80;99.90
3994;DHT22;2011;48.238;13.948;2023-06-24T11:09:50;19.80;99.90
3994;DHT22;2011;48.238;13.948;2023-06-24T11:12:18;19.80;99.90
3994;DHT22;2011;48.238;13.948;2023-06-24T11:14:46;19.80;99.90
3994;DHT22;2011;48.238;13.948;2023-06-24T11:17:13;20.00;99.90
3994;DHT22;2011;48.238;13.948;2023-06-24T11:19:41;20.00;99.90
3994;DHT22;2011;48.238;13.948;2023-06-24T11:22:11;20.00;99.90
3994;DHT22;2011;48.238;13.948;2023-06-24T11:24:38;20.00;99.90
3994;DHT22;2011;48.238;13.948;2023-06-24T11:27:08;20.00;99.90
3994;DHT22;2011;48.238;13.948;2023-06-24T11:29:35;20.10;99.90
3994;DHT22;2011;48.238;13.948;2023-06-24T11:35:25;20.10;99.90
3994;DHT22;2011;48.238;13.948;2023-06-24T11:37:58;20.00;99.90
3994;DHT22;2011;48.238;13.948;2023-06-24T11:40:25;19.90;99.90
3994;DHT22;2011;48.238;13.948;2023-06-24T11:42:53;19.70;99.90
3994;DHT22;2011;48.238;13.948;2023-06-24T11:45:21;19.70;99.90
3994;DHT22;2011;48.238;13.948;2023-06-24T11:47:49;19.70;99.90
3994;DHT22;2011;48.238;13.948;2023-06-24T11:50:16;19.80;99.90
3994;DHT22;2011;48.238;13.948;2023-06-24T11:52:44;19.80;99.90
3994;DHT22;2011;48.238;13.948;2023-06-24T11:55:18;19.80;99.90
3994;DHT22;2011;48.238;13.948;2023-06-24T11:57:54;19.90;99.90
3994;DHT22;2011;48.238;13.948;2023-06-24T12:00:22;20.00;99.90
3994;DHT22;2011;48.238;13.948;2023-06-24T12:02:52;20.00;99.90
3994;DHT22;2011;48.238;13.948;2023-06-24T12:05:27;20.00;99.90
3994;DHT22;2011;48.238;13.948;2023-06-24T12:07:56;20.10;99.90
3994;DHT22;2011;48.238;13.948;2023-06-24T12:10:25;20.30;99.90
3994;DHT22;2011;48.238;13.948;2023-06-24T12:12:53;20.50;99.90
3994;DHT22;2011;48.238;13.948;2023-06-24T12:15:20;20.70;99.90
3994;DHT22;2011;48.238;13.948;2023-06-24T12:17:49;20.80;99.90
3994;DHT22;2011;48.238;13.948;2023-06-24T12:20:17;21.10;99.90
3994;DHT22;2011;48.238;13.948;2023-06-24T12:22:45;21.30;99.90
3994;DHT22;2011;48.238;13.948;2023-06-24T12:25:12;21.50;99.90
3994;DHT22;2011;48.238;13.948;2023-06-24T12:27:42;21.60;99.90
3994;DHT22;2011;48.238;13.948;2023-06-24T12:30:10;21.80;99.90
3994;DHT22;2011;48.238;13.948;2023-06-24T12:32:38;21.90;99.90
3994;DHT22;2011;48.238;13.948;2023-06-24T12:35:06;21.90;99.90
3994;DHT22;2011;48.238;13.948;2023-06-24T12:37:35;21.80;99.90
3994;DHT22;2011;48.238;13.948;2023-06-24T12:40:03;21.70;99.90
3994;DHT22;2011;48.238;13.948;2023-06-24T12:42:30;21.60;99.90
3994;DHT22;2011;48.238;13.948;2023-06-24T12:44:59;21.50;99.90
3994;DHT22;2011;48.238;13.948;2023-06-24T12:47:27;21.50;99.90
3994;DHT22;2011;48.238;13.948;2023-06-24T12:49:54;21.30;99.90
3994;DHT22;2011;48.238;13.948;2023-06-24T12:52:22;21.20;99.90
3994;DHT22;2011;48.238;13.948;2023-06-24T12:54:50;21.10;99.90
3994;DHT22;2011;48.238;13.948;2023-06-24T12:57:17;21.10;99.90
3994;DHT22;2011;48.238;13.948;2023-06-24T12:59:44;21.10;99.90
3994;DHT22;2011;48.238;13.948;2023-06-24T13:02:13;21.20;99.90
3994;DHT22;2011;48.238;13.948;2023-06-24T13:04:40;21.30;99.90
3994;DHT22;2011;48.238;13.948;2023-06-24T13:07:08;21.30;99.90
3994;DHT22;2011;48.238;13.948;2023-06-24T13:09:35;21.40;99.90
3994;DHT22;2011;48.238;13.948;2023-06-24T13:12:03;21.50;99.90
3994;DHT22;2011;48.238;13.948;2023-06-24T13:14:30;21.60;99.90
3994;DHT22;2011;48.238;13.948;2023-06-24T13:16:58;21.80;99.90
3994;DHT22;2011;48.238;13.948;2023-06-24T13:19:26;21.90;99.90
3994;DHT22;2011;48.238;13.948;2023-06-24T13:21:54;22.00;99.90
3994;DHT22;2011;48.238;13.948;2023-06-24T13:24:21;22.10;99.90
3994;DHT22;2011;48.238;13.948;2023-06-24T13:26:48;22.10;99.90
3994;DHT22;2011;48.238;13.948;2023-06-24T13:29:15;22.20;99.90
3994;DHT22;2011;48.238;13.948;2023-06-24T13:31:43;22.20;99.90
3994;DHT22;2011;48.238;13.948;2023-06-24T13:34:10;22.20;99.90
3994;DHT22;2011;48.238;13.948;2023-06-24T13:36:40;22.30;99.90
3994;DHT22;2011;48.238;13.948;2023-06-24T13:39:08;22.50;99.90
3994;DHT22;2011;48.238;13.948;2023-06-24T13:41:38;23.00;99.90
3994;DHT22;2011;48.238;13.948;2023-06-24T13:44:06;23.50;99.90
3994;DHT22;2011;48.238;13.948;2023-06-24T13:46:33;23.80;99.90
3994;DHT22;2011;48.238;13.948;2023-06-24T13:49:01;24.20;99.90
3994;DHT22;2011;48.238;13.948;2023-06-24T13:51:29;24.20;99.90
3994;DHT22;2011;48.238;13.948;2023-06-24T13:53:57;24.10;99.90
3994;DHT22;2011;48.238;13.948;2023-06-24T13:56:26;24.10;99.20
3994;DHT22;2011;48.238;13.948;2023-06-24T13:58:55;24.30;99.90
3994;DHT22;2011;48.238;13.948;2023-06-24T14:01:22;24.50;99.90
3994;DHT22;2011;48.238;13.948;2023-06-24T14:03:50;24.70;98.90
3994;DHT22;2011;48.238;13.948;2023-06-24T14:06:20;24.70;98.00
3994;DHT22;2011;48.238;13.948;2023-06-24T14:08:48;24.30;97.30
3994;DHT22;2011;48.238;13.948;2023-06-24T14:11:17;24.10;97.50
3994;DHT22;2011;48.238;13.948;2023-06-24T14:13:45;24.00;97.30
3994;DHT22;2011;48.238;13.948;2023-06-24T14:16:13;23.80;97.00
3994;DHT22;2011;48.238;13.948;2023-06-24T14:18:40;23.80;97.70
3994;DHT22;2011;48.238;13.948;2023-06-24T14:21:09;24.10;98.80
3994;DHT22;2011;48.238;13.948;2023-06-24T14:23:36;24.00;97.70
3994;DHT22;2011;48.238;13.948;2023-06-24T14:26:04;24.40;98.20
3994;DHT22;2011;48.238;13.948;2023-06-24T14:28:32;24.60;98.20
3994;DHT22;2011;48.238;13.948;2023-06-24T14:31:00;24.60;97.30
3994;DHT22;2011;48.238;13.948;2023-06-24T14:33:27;24.60;97.30
3994;DHT22;2011;48.238;13.948;2023-06-24T14:35:54;24.90;97.50
3994;DHT22;2011;48.238;13.948;2023-06-24T14:38:22;25.20;96.10
3994;DHT22;2011;48.238;13.948;2023-06-24T14:40:49;24.90;95.80
3994;DHT22;2011;48.238;13.948;2023-06-24T14:43:17;24.60;95.70
3994;DHT22;2011;48.238;13.948;2023-06-24T14:45:46;24.80;96.20
3994;DHT22;2011;48.238;13.948;2023-06-24T14:48:13;25.00;95.80
3994;DHT22;2011;48.238;13.948;2023-06-24T14:50:41;24.70;95.00
3994;DHT22;2011;48.238;13.948;2023-06-24T14:53:08;24.50;95.60
3994;DHT22;2011;48.238;13.948;2023-06-24T14:55:36;24.30;95.80
3994;DHT22;2011;48.238;13.948;2023-06-24T14:58:03;24.20;95.90
3994;DHT22;2011;48.238;13.948;2023-06-24T15:00:30;24.10;95.90
3994;DHT22;2011;48.238;13.948;2023-06-24T15:02:59;24.10;96.40
3994;DHT22;2011;48.238;13.948;2023-06-24T15:05:27;24.10;95.80
3994;DHT22;2011;48.238;13.948;2023-06-24T15:07:54;24.10;95.80
3994;DHT22;2011;48.238;13.948;2023-06-24T15:10:22;24.10;95.80
3994;DHT22;2011;48.238;13.948;2023-06-24T15:12:49;24.10;95.90
3994;DHT22;2011;48.238;13.948;2023-06-24T15:15:17;24.10;95.70
3994;DHT22;2011;48.238;13.948;2023-06-24T15:17:44;24.10;95.90
3994;DHT22;2011;48.238;13.948;2023-06-24T15:20:13;24.20;96.20
3994;DHT22;2011;48.238;13.948;2023-06-24T15:22:41;24.20;95.80
3994;DHT22;2011;48.238;13.948;2023-06-24T15:25:09;24.10;95.70
3994;DHT22;2011;48.238;13.948;2023-06-24T15:27:36;24.10;95.40
3994;DHT22;2011;48.238;13.948;2023-06-24T15:30:04;23.90;94.70
3994;DHT22;2011;48.238;13.948;2023-06-24T15:32:31;23.90;95.00
3994;DHT22;2011;48.238;13.948;2023-06-24T15:35:02;23.80;95.00
3994;DHT22;2011;48.238;13.948;2023-06-24T15:37:31;23.90;95.00
3994;DHT22;2011;48.238;13.948;2023-06-24T15:39:58;24.00;95.60
3994;DHT22;2011;48.238;13.948;2023-06-24T15:42:26;24.10;95.50
3994;DHT22;2011;48.238;13.948;2023-06-24T15:44:53;24.20;96.10
3994;DHT22;2011;48.238;13.948;2023-06-24T15:47:20;24.40;94.90
3994;DHT22;2011;48.238;13.948;2023-06-24T15:49:48;24.40;94.90
3994;DHT22;2011;48.238;13.948;2023-06-24T15:52:17;24.40;94.40
3994;DHT22;2011;48.238;13.948;2023-06-24T15:54:46;24.50;94.30
3994;DHT22;2011;48.238;13.948;2023-06-24T15:57:13;24.50;94.50
3994;DHT22;2011;48.238;13.948;2023-06-24T15:59:41;24.60;94.10
3994;DHT22;2011;48.238;13.948;2023-06-24T16:02:08;24.60;93.50
3994;DHT22;2011;48.238;13.948;2023-06-24T16:04:35;24.60;93.10
3994;DHT22;2011;48.238;13.948;2023-06-24T16:07:03;24.80;94.10